Historyczne dane pomiarowe

Dodano dane terminowe – wersja testowa.

Dane z okresu 1951-2019

Wersja bazy: 1.34 [2019-03-16, lista zmian], aktualizacja planowana na 2019-04-15

Dane meteo z obszaru Polski uzyskane na podstawie danych udostępnionych przez Instytut Meteorologii i Gospodarki Wodnej – Państwowy Instytut Badawczy.

 

Wybierz Datę:    

       

TemperaturaWilgotnośćWiatrCiśnienieOpadyŚniegCzas trwania zjawisk
 Stacja t tx tn tng RH VA  wxwx mslp ppp RRR   cm mm wxwxwxwxwxwxwx
1987-08-14 13.0 19.7 3.7- 77.5- 5.0 2.3---- 0.5------------
1987-08-13 10.6 16.6 2.4- 73.8- 4.3 2.3---- 0.0------------
1987-08-12 11.0 16.4 2.6- 72.5- 3.7 2.0---- 0.2------------
1987-08-11 12.1 17.1 7.9- 75.0- 4.3 4.7---- 0.3------------
1987-08-10 13.3 16.7 11.9- 87.3- 8.0 1.3---- 18.3------------
1987-08-09 13.9 20.8 5.2- 70.8- 3.0 4.7---- 1.7------------
1987-08-08 12.2 17.6 6.0- 74.0- 4.3 0.7---- 0.0------------
1987-08-07 9.3 13.8 2.4- 78.0- 7.7 4.0---- 0.2------------
1987-08-06 10.6 14.7 8.9- 83.3- 5.3 3.0---- 2.3------------
1987-08-05 12.0 15.4 8.4- 81.3- 8.0 2.0---- 2.0------------
1987-08-04 12.5 15.8 8.3- 88.8- 7.3 2.7---- 6.0------------
1987-08-03 13.8 18.9 8.4- 80.8- 5.3 2.0---- 0.0------------
1987-08-02 13.4 17.1 11.9- 80.5- 5.3 3.7---- 1.0------------
1987-08-01 14.6 21.0 7.5- 79.8- 3.7 1.7---- 0.8------------
1987-07-31 14.6 18.7 12.6- 86.5- 7.7 2.3---- 9.0------------
1987-07-30 15.4 21.3 10.0- 75.8- 3.7 4.3---- 0.0------------
1987-07-29 11.6 17.9 8.4- 79.3- 4.0 1.3---- 0.0------------
1987-07-28 11.9 13.9 9.0- 83.0- 8.0 3.7---- 3.2------------
1987-07-27 11.7 17.1 8.0- 66.8- 3.0 3.3---- 1.4------------
1987-07-26 13.6 19.6 11.1- 93.8- 8.0 4.7---- 18.7------------
1987-07-25 17.7 22.1 13.1- 89.5- 5.7 1.7---- 0.8------------
1987-07-24 19.6 27.4 14.9- 83.8- 5.0 2.3---- 1.9------------
1987-07-23 19.6 26.4 12.0- 79.3- 4.3 1.7---- 9.2------------
1987-07-22 18.7 24.6 11.4- 81.3- 5.3 2.7---- 9.4------------
1987-07-21 19.8 26.7 10.6- 77.3- 1.7 1.0---- 0.0------------
1987-07-20 20.1 26.5 15.5- 81.5- 4.7 5.0---- 2.6------------
1987-07-19 22.1 28.6 16.5- 79.0- 3.7 1.3---- 2.6------------
1987-07-18 21.2 26.8 16.0- 80.5- 3.0 1.7---- 0.0------------
1987-07-17 19.8 26.4 14.4- 75.8- 4.7 4.0---- 0.0------------
1987-07-16 18.3 25.7 8.7- 72.0- 4.3 2.3---- 0.0------------
1987-07-15 14.7 22.7 4.2- 72.0- 0.7 0.7---- 0.0------------
1987-07-14 16.2 19.2 9.6- 66.3- 0.3 4.3---- 0.0------------
1987-07-13 18.3 22.8 12.7- 78.8- 5.3 2.3---- 0.0------------
1987-07-12 18.4 26.4 9.1- 69.8- 2.7 4.7---- 7.1------------
1987-07-11 14.1 23.0 5.0- 69.8- 1.3 1.7---- 0.0------------
1987-07-10 14.6 17.8 10.9- 64.5- 0.7 5.3---- 0.0------------
1987-07-09 17.8 24.8 13.4- 76.3- 5.3 4.0---- 2.1------------
1987-07-08 18.2 26.0 8.9- 57.0- 0.0 4.0---- 0.0------------
1987-07-07 16.1 23.6 4.9- 60.0- 0.0 1.7---- 0.0------------
1987-07-06 14.6 19.8 5.8- 69.0- 0.3 2.3---- 0.0------------
1987-07-05 13.5 18.5 10.4- 83.5- 8.0 2.3---- 3.2------------
1987-07-04 18.1 22.1 11.8- 69.8- 4.3 1.3---- 0.4------------
1987-07-03 17.5 20.7 14.6- 76.5- 8.0 4.7---- 0.0------------
1987-07-02 18.8 23.6 14.4- 90.5- 6.7 5.0---- 0.0------------
1987-07-01 22.6 28.0 14.4- 74.0- 0.0 2.7---- 0.0------------
1987-06-30 20.5 27.1 11.0- 75.8- 0.3 2.0---- 0.0------------
1987-06-29 18.4 23.3 12.9- 79.0- 2.3 2.3---- 0.0------------
1987-06-28 17.9 22.9 12.6- 78.5- 3.3 1.3---- 0.5------------
1987-06-27 17.1 23.2 13.5- 79.0- 5.3 1.0---- 21.6------------
1987-06-26 14.8 20.5 4.6- 69.8- 1.3 2.3---- 0.0------------
1987-06-25 14.6 17.7 12.0- 71.3- 4.3 3.7---- 0.0------------
1987-06-24 15.1 18.7 9.3- 77.8- 5.3 1.7---- 1.2------------
1987-06-23 14.7 18.4 11.7- 81.3- 7.3 3.3---- 0.4------------
1987-06-22 14.3 20.1 10.2- 85.5- 7.0 3.3---- 4.2------------
1987-06-21 14.3 21.4 5.5- 74.0- 2.7 1.7---- 1.1------------
1987-06-20 12.6 19.5 3.7- 70.3- 3.0 4.0---- 0.0------------
1987-06-19 10.0 14.5 7.3- 80.8- 3.7 2.0---- 1.0------------
1987-06-18 9.9 15.6 1.6- 79.8- 4.0 1.7---- 1.0------------
1987-06-17 9.8 13.2 8.5- 80.0- 7.0 1.7---- 2.7------------
1987-06-16 15.5 22.4 11.2- 75.8- 7.7 6.3---- 4.3------------
511.6 ms

 

Źródłem pochodzenia danych jest Instytut Meteorologii i Gospodarki Wodnej – Państwowy Instytut Badawczy. Dane Instytutu Meteorologii i Gospodarki Wodnej – Państwowego Instytutu Badawczego zostały przetworzone.

Dane źródłowe można odnaleźć na stronie https://dane.imgw.pl